Time,TemperatureF,DewpointF,PressureIn,WindDirection,WindDirectionDegrees,WindSpeedMPH,WindSpeedGustMPH,Humidity,HourlyPrecipIn,Conditions,Clouds,dailyrainin,SoftwareType,DateUTC
2013-12-09 00:03:00,-999.0,-99.9,32.49,North,-999,-999.0,-999.0,-999,0.00,,,0.00,weatherlink.com 1.10,2013-12-09 07:03:00,
2013-12-09 00:18:00,-999.0,-99.9,32.49,North,-999,-999.0,-999.0,-999,0.00,,,0.00,weatherlink.com 1.10,2013-12-09 07:18:00,
2013-12-09 00:33:00,-999.0,-99.9,32.49,North,-999,-999.0,-999.0,-999,0.00,,,0.00,weatherlink.com 1.10,2013-12-09 07:33:00,
2013-12-09 00:49:00,-999.0,-99.9,32.49,North,-999,-999.0,-999.0,-999,0.00,,,0.00,weatherlink.com 1.10,2013-12-09 07:49:00,
2013-12-09 01:04:00,-999.0,-99.9,32.48,North,-999,-999.0,-999.0,-999,0.00,,,0.00,weatherlink.com 1.10,2013-12-09 08:04:00,
2013-12-09 01:19:00,-999.0,-99.9,32.47,North,-999,-999.0,-999.0,-999,0.00,,,0.00,weatherlink.com 1.10,2013-12-09 08:19:00,
2013-12-09 01:34:00,-999.0,-99.9,32.45,North,-999,-999.0,-999.0,-999,0.00,,,0.00,weatherlink.com 1.10,2013-12-09 08:34:00,
2013-12-09 01:49:00,-999.0,-99.9,32.48,North,-999,-999.0,-999.0,-999,0.00,,,0.00,weatherlink.com 1.10,2013-12-09 08:49:00,
2013-12-09 02:04:00,-999.0,-99.9,32.47,North,-999,-999.0,-999.0,-999,0.00,,,0.00,weatherlink.com 1.10,2013-12-09 09:04:00,
2013-12-09 02:19:00,-999.0,-99.9,32.47,North,-999,-999.0,-999.0,-999,0.00,,,0.00,weatherlink.com 1.10,2013-12-09 09:19:00,
2013-12-09 02:34:00,-999.0,-99.9,32.47,North,-999,-999.0,-999.0,-999,0.00,,,0.00,weatherlink.com 1.10,2013-12-09 09:34:00,
2013-12-09 02:49:00,-0.3,-5.0,32.48,South,173,2.0,7.0,79,0.00,,,0.00,weatherlink.com 1.10,2013-12-09 09:49:00,
2013-12-09 03:04:00,-0.5,-4.0,32.49,South,172,3.0,4.0,84,0.00,,,0.00,weatherlink.com 1.10,2013-12-09 10:04:00,
2013-12-09 03:19:00,-1.5,-6.0,32.49,South,178,1.0,4.0,81,0.00,,,0.00,weatherlink.com 1.10,2013-12-09 10:19:00,
2013-12-09 03:34:00,0.4,-3.0,32.48,South,179,3.0,8.0,85,0.00,,,0.00,weatherlink.com 1.10,2013-12-09 10:34:00,
2013-12-09 03:49:00,-0.2,-4.0,32.48,South,175,0.0,5.0,83,0.00,,,0.00,weatherlink.com 1.10,2013-12-09 10:49:00,
2013-12-09 04:04:00,0.2,-4.0,32.48,South,180,2.0,8.0,84,0.00,,,0.00,weatherlink.com 1.10,2013-12-09 11:04:00,
2013-12-09 04:20:00,-999.0,-99.9,32.47,North,-999,-999.0,-999.0,-999,0.00,,,0.00,weatherlink.com 1.10,2013-12-09 11:20:00,
2013-12-09 04:35:00,-999.0,-99.9,32.45,North,-999,-999.0,-999.0,-999,0.00,,,0.00,weatherlink.com 1.10,2013-12-09 11:35:00,
2013-12-09 04:50:00,-999.0,-99.9,32.45,North,-999,-999.0,-999.0,-999,0.00,,,0.00,weatherlink.com 1.10,2013-12-09 11:50:00,
2013-12-09 05:05:00,-999.0,-99.9,32.45,North,-999,-999.0,-999.0,-999,0.00,,,0.00,weatherlink.com 1.10,2013-12-09 12:05:00,
2013-12-09 05:20:00,-999.0,-99.9,32.44,North,-999,-999.0,-999.0,-999,0.00,,,0.00,weatherlink.com 1.10,2013-12-09 12:20:00,
2013-12-09 05:35:00,-999.0,-99.9,32.44,North,-999,-999.0,-999.0,-999,0.00,,,0.00,weatherlink.com 1.10,2013-12-09 12:35:00,
2013-12-09 05:50:00,-999.0,-99.9,32.43,North,-999,-999.0,-999.0,-999,0.00,,,0.00,weatherlink.com 1.10,2013-12-09 12:50:00,
2013-12-09 06:05:00,-999.0,-99.9,32.44,North,-999,-999.0,-999.0,-999,0.00,,,0.00,weatherlink.com 1.10,2013-12-09 13:05:00,
2013-12-09 06:20:00,-999.0,-99.9,32.43,North,-999,-999.0,-999.0,-999,0.00,,,0.00,weatherlink.com 1.10,2013-12-09 13:20:00,
2013-12-09 06:35:00,-999.0,-99.9,32.43,North,-999,-999.0,-999.0,-999,0.00,,,0.00,weatherlink.com 1.10,2013-12-09 13:35:00,
2013-12-09 06:50:00,-999.0,-99.9,32.43,North,-999,-999.0,-999.0,-999,0.00,,,0.00,weatherlink.com 1.10,2013-12-09 13:50:00,
2013-12-09 07:05:00,-999.0,-99.9,32.43,North,-999,-999.0,-999.0,-999,0.00,,,0.00,weatherlink.com 1.10,2013-12-09 14:05:00,
2013-12-09 07:20:00,-999.0,-99.9,32.42,North,-999,-999.0,-999.0,-999,0.00,,,0.00,weatherlink.com 1.10,2013-12-09 14:20:00,
2013-12-09 07:35:00,-999.0,-99.9,32.43,North,-999,-999.0,-999.0,-999,0.00,,,0.00,weatherlink.com 1.10,2013-12-09 14:35:00,
2013-12-09 07:51:00,-999.0,-99.9,32.43,North,-999,-999.0,-999.0,-999,0.00,,,0.00,weatherlink.com 1.10,2013-12-09 14:51:00,
2013-12-09 08:06:00,-999.0,-99.9,32.42,North,-999,-999.0,-999.0,-999,0.00,,,0.00,weatherlink.com 1.10,2013-12-09 15:06:00,
2013-12-09 08:21:00,-999.0,-99.9,32.43,North,-999,-999.0,-999.0,-999,0.00,,,0.00,weatherlink.com 1.10,2013-12-09 15:21:00,
2013-12-09 08:36:00,-999.0,-99.9,32.43,North,-999,-999.0,-999.0,-999,0.00,,,0.00,weatherlink.com 1.10,2013-12-09 15:36:00,
2013-12-09 08:51:00,-999.0,-99.9,32.44,North,-999,-999.0,-999.0,-999,0.00,,,0.00,weatherlink.com 1.10,2013-12-09 15:51:00,
2013-12-09 09:06:00,-999.0,-99.9,32.44,North,-999,-999.0,-999.0,-999,0.00,,,0.00,weatherlink.com 1.10,2013-12-09 16:06:00,
2013-12-09 09:21:00,-999.0,-99.9,32.45,North,-999,-999.0,-999.0,-999,0.00,,,0.00,weatherlink.com 1.10,2013-12-09 16:21:00,
2013-12-09 09:36:00,-999.0,-99.9,32.45,North,-999,-999.0,-999.0,-999,0.00,,,0.00,weatherlink.com 1.10,2013-12-09 16:36:00,
2013-12-09 09:51:00,-999.0,-99.9,32.46,North,-999,-999.0,-999.0,-999,0.00,,,0.00,weatherlink.com 1.10,2013-12-09 16:51:00,
2013-12-09 10:06:00,-999.0,-99.9,32.45,North,-999,-999.0,-999.0,-999,0.00,,,0.00,weatherlink.com 1.10,2013-12-09 17:06:00,
2013-12-09 10:21:00,-999.0,-99.9,32.45,North,-999,-999.0,-999.0,-999,0.00,,,0.00,weatherlink.com 1.10,2013-12-09 17:21:00,
2013-12-09 10:36:00,-999.0,-99.9,32.44,North,-999,-999.0,-999.0,-999,0.00,,,0.00,weatherlink.com 1.10,2013-12-09 17:36:00,
2013-12-09 10:51:00,-999.0,-99.9,32.44,North,-999,-999.0,-999.0,-999,0.00,,,0.00,weatherlink.com 1.10,2013-12-09 17:51:00,
2013-12-09 11:06:00,-999.0,-99.9,32.44,North,-999,-999.0,-999.0,-999,0.00,,,0.00,weatherlink.com 1.10,2013-12-09 18:06:00,
2013-12-09 11:22:00,-999.0,-99.9,32.44,North,-999,-999.0,-999.0,-999,0.00,,,0.00,weatherlink.com 1.10,2013-12-09 18:22:00,
2013-12-09 11:37:00,-999.0,-99.9,32.43,North,-999,-999.0,-999.0,-999,0.00,,,0.00,weatherlink.com 1.10,2013-12-09 18:37:00,
2013-12-09 11:52:00,-999.0,-99.9,32.43,North,-999,-999.0,-999.0,-999,0.00,,,0.00,weatherlink.com 1.10,2013-12-09 18:52:00,
2013-12-09 12:22:00,-999.0,-99.9,32.42,North,-999,-999.0,-999.0,-999,0.00,,,0.00,weatherlink.com 1.10,2013-12-09 19:22:00,
2013-12-09 12:37:00,-999.0,-99.9,32.42,North,-999,-999.0,-999.0,-999,0.00,,,0.00,weatherlink.com 1.10,2013-12-09 19:37:00,
2013-12-09 12:52:00,-999.0,-99.9,32.41,North,-999,-999.0,-999.0,-999,0.00,,,0.00,weatherlink.com 1.10,2013-12-09 19:52:00,
2013-12-09 13:07:00,-999.0,-99.9,32.41,North,-999,-999.0,-999.0,-999,0.00,,,0.00,weatherlink.com 1.10,2013-12-09 20:07:00,
2013-12-09 13:22:00,-999.0,-99.9,32.41,North,-999,-999.0,-999.0,-999,0.00,,,0.00,weatherlink.com 1.10,2013-12-09 20:22:00,
2013-12-09 13:37:00,7.9,4.0,32.41,NNW,334,1.0,2.0,83,0.00,,,0.00,weatherlink.com 1.10,2013-12-09 20:37:00,
2013-12-09 13:52:00,6.8,3.0,32.41,NNW,334,1.0,2.0,85,0.00,,,0.00,weatherlink.com 1.10,2013-12-09 20:52:00,
2013-12-09 14:07:00,6.7,3.0,32.40,NNW,334,0.0,2.0,86,0.00,,,0.00,weatherlink.com 1.10,2013-12-09 21:07:00,
2013-12-09 14:22:00,7.2,4.0,32.40,NW,320,3.0,3.0,87,0.00,,,0.00,weatherlink.com 1.10,2013-12-09 21:22:00,
2013-12-09 14:37:00,8.2,5.0,32.40,NW,304,1.0,3.0,87,0.00,,,0.00,weatherlink.com 1.10,2013-12-09 21:37:00,
2013-12-09 14:53:00,8.7,5.0,32.41,NW,304,2.0,3.0,86,0.00,,,0.00,weatherlink.com 1.10,2013-12-09 21:53:00,
2013-12-09 15:08:00,9.2,6.0,32.40,WSW,248,3.0,4.0,86,0.00,,,0.00,weatherlink.com 1.10,2013-12-09 22:08:00,
2013-12-09 15:23:00,9.2,6.0,32.39,South,177,2.0,4.0,86,0.00,,,0.00,weatherlink.com 1.10,2013-12-09 22:23:00,
2013-12-09 15:38:00,9.5,6.0,32.39,South,177,0.0,2.0,87,0.00,,,0.00,weatherlink.com 1.10,2013-12-09 22:38:00,
2013-12-09 15:53:00,10.7,8.0,32.39,South,178,2.0,5.0,88,0.00,,,0.00,weatherlink.com 1.10,2013-12-09 22:53:00,
2013-12-09 16:08:00,10.4,7.0,32.38,South,178,0.0,3.0,86,0.00,,,0.00,weatherlink.com 1.10,2013-12-09 23:08:00,
2013-12-09 16:23:00,10.0,6.0,32.38,NNW,337,2.0,7.0,83,0.00,,,0.00,weatherlink.com 1.10,2013-12-09 23:23:00,
2013-12-09 16:38:00,9.8,6.0,32.38,WNW,302,2.0,4.0,84,0.00,,,0.00,weatherlink.com 1.10,2013-12-09 23:38:00,
2013-12-09 16:53:00,10.5,7.0,32.38,WNW,302,0.0,4.0,87,0.00,,,0.00,weatherlink.com 1.10,2013-12-09 23:53:00,
2013-12-09 17:08:00,11.0,8.0,32.38,WNW,302,0.0,2.0,87,0.00,,,0.00,weatherlink.com 1.10,2013-12-10 00:08:00,
2013-12-09 17:23:00,-999.0,-99.9,32.37,North,-999,-999.0,-999.0,-999,0.00,,,0.00,weatherlink.com 1.10,2013-12-10 00:23:00,
2013-12-09 17:38:00,-999.0,-99.9,32.36,North,-999,-999.0,-999.0,-999,0.00,,,0.00,weatherlink.com 1.10,2013-12-10 00:38:00,
2013-12-09 17:53:00,-999.0,-99.9,32.36,North,-999,-999.0,-999.0,-999,0.00,,,0.00,weatherlink.com 1.10,2013-12-10 00:53:00,
2013-12-09 18:08:00,-999.0,-99.9,32.34,North,-999,-999.0,-999.0,-999,0.00,,,0.00,weatherlink.com 1.10,2013-12-10 01:08:00,
2013-12-09 18:24:00,-999.0,-99.9,32.34,North,-999,-999.0,-999.0,-999,0.00,,,0.00,weatherlink.com 1.10,2013-12-10 01:24:00,
2013-12-09 18:39:00,-999.0,-99.9,32.33,North,-999,-999.0,-999.0,-999,0.00,,,0.00,weatherlink.com 1.10,2013-12-10 01:39:00,
2013-12-09 18:54:00,-999.0,-99.9,32.32,North,-999,-999.0,-999.0,-999,0.00,,,0.00,weatherlink.com 1.10,2013-12-10 01:54:00,
2013-12-09 19:09:00,-999.0,-99.9,32.32,North,-999,-999.0,-999.0,-999,0.00,,,0.00,weatherlink.com 1.10,2013-12-10 02:09:00,
2013-12-09 19:24:00,-999.0,-99.9,32.31,North,-999,-999.0,-999.0,-999,0.00,,,0.00,weatherlink.com 1.10,2013-12-10 02:24:00,
2013-12-09 19:39:00,-999.0,-99.9,32.30,North,-999,-999.0,-999.0,-999,0.00,,,0.00,weatherlink.com 1.10,2013-12-10 02:39:00,
2013-12-09 19:54:00,-999.0,-99.9,32.29,North,-999,-999.0,-999.0,-999,0.00,,,0.00,weatherlink.com 1.10,2013-12-10 02:54:00,
2013-12-09 20:09:00,11.2,9.0,32.29,SW,223,2.0,3.0,89,0.00,,,0.00,weatherlink.com 1.10,2013-12-10 03:09:00,
2013-12-09 20:24:00,12.8,9.0,32.28,WNW,292,7.0,7.0,86,0.00,,,0.00,weatherlink.com 1.10,2013-12-10 03:24:00,
2013-12-09 20:39:00,11.9,9.0,32.28,NNE,21,0.0,4.0,87,0.00,,,0.00,weatherlink.com 1.10,2013-12-10 03:39:00,
2013-12-09 20:54:00,13.8,11.0,32.28,NW,313,0.0,5.0,87,0.00,,,0.00,weatherlink.com 1.10,2013-12-10 03:54:00,
2013-12-09 21:09:00,13.0,10.0,32.27,NW,313,1.0,3.0,86,0.00,,,0.00,weatherlink.com 1.10,2013-12-10 04:09:00,
2013-12-09 21:24:00,13.5,11.0,32.27,NW,313,0.0,3.0,88,0.00,,,0.00,weatherlink.com 1.10,2013-12-10 04:24:00,
2013-12-09 21:40:00,13.9,11.0,32.25,NW,313,1.0,1.0,88,0.00,,,0.00,weatherlink.com 1.10,2013-12-10 04:40:00,
2013-12-09 21:55:00,16.7,13.0,32.25,SSE,159,4.0,8.0,85,0.00,,,0.00,weatherlink.com 1.10,2013-12-10 04:55:00,
2013-12-09 22:10:00,17.3,13.0,32.24,SSE,154,3.0,7.0,83,0.00,,,0.00,weatherlink.com 1.10,2013-12-10 05:10:00,
2013-12-09 22:25:00,-999.0,-99.9,32.23,North,-999,-999.0,-999.0,-999,0.00,,,0.00,weatherlink.com 1.10,2013-12-10 05:25:00,
2013-12-09 22:40:00,-999.0,-99.9,32.22,North,-999,-999.0,-999.0,-999,0.00,,,0.00,weatherlink.com 1.10,2013-12-10 05:40:00,
2013-12-09 22:55:00,-999.0,-99.9,32.21,North,-999,-999.0,-999.0,-999,0.00,,,0.00,weatherlink.com 1.10,2013-12-10 05:55:00,
2013-12-09 23:10:00,-999.0,-99.9,32.20,North,-999,-999.0,-999.0,-999,0.00,,,0.00,weatherlink.com 1.10,2013-12-10 06:10:00,
2013-12-09 23:25:00,-999.0,-99.9,32.19,North,-999,-999.0,-999.0,-999,0.00,,,0.00,weatherlink.com 1.10,2013-12-10 06:25:00,
2013-12-09 23:40:00,-999.0,-99.9,32.17,North,-999,-999.0,-999.0,-999,0.00,,,0.00,weatherlink.com 1.10,2013-12-10 06:40:00,
2013-12-09 23:55:00,-999.0,-99.9,32.16,North,-999,-999.0,-999.0,-999,0.00,,,0.00,weatherlink.com 1.10,2013-12-10 06:55:00,